sensor_id;sensor_type;location;lat;lon;timestamp;temperature;humidity
24338;DHT22;12457;50.832;4.346;2023-04-03T00:01:41;4.60;99.90
24338;DHT22;12457;50.832;4.346;2023-04-03T00:04:07;4.70;99.90
24338;DHT22;12457;50.832;4.346;2023-04-03T00:06:32;4.60;99.90
24338;DHT22;12457;50.832;4.346;2023-04-03T00:09:05;4.60;99.90
24338;DHT22;12457;50.832;4.346;2023-04-03T00:11:31;4.50;99.90
24338;DHT22;12457;50.832;4.346;2023-04-03T00:13:56;4.40;99.90
24338;DHT22;12457;50.832;4.346;2023-04-03T00:16:22;4.50;99.90
24338;DHT22;12457;50.832;4.346;2023-04-03T00:18:48;4.40;99.90
24338;DHT22;12457;50.832;4.346;2023-04-03T00:21:13;4.40;99.90
24338;DHT22;12457;50.832;4.346;2023-04-03T00:23:41;4.40;99.90
24338;DHT22;12457;50.832;4.346;2023-04-03T00:26:07;4.40;99.90
24338;DHT22;12457;50.832;4.346;2023-04-03T00:28:32;4.40;99.90
24338;DHT22;12457;50.832;4.346;2023-04-03T00:30:58;4.40;99.90
24338;DHT22;12457;50.832;4.346;2023-04-03T00:33:24;4.40;99.90
24338;DHT22;12457;50.832;4.346;2023-04-03T00:35:50;4.40;99.90
24338;DHT22;12457;50.832;4.346;2023-04-03T00:38:17;4.30;99.90
24338;DHT22;12457;50.832;4.346;2023-04-03T00:40:45;4.30;99.90
24338;DHT22;12457;50.832;4.346;2023-04-03T00:43:20;4.30;99.90
24338;DHT22;12457;50.832;4.346;2023-04-03T00:45:51;4.40;99.90
24338;DHT22;12457;50.832;4.346;2023-04-03T00:48:36;4.40;99.90
24338;DHT22;12457;50.832;4.346;2023-04-03T00:51:04;4.30;99.90
24338;DHT22;12457;50.832;4.346;2023-04-03T00:53:43;4.30;99.90
24338;DHT22;12457;50.832;4.346;2023-04-03T00:56:13;4.20;99.90
24338;DHT22;12457;50.832;4.346;2023-04-03T00:58:54;4.20;99.90
24338;DHT22;12457;50.832;4.346;2023-04-03T01:01:24;4.20;99.90
24338;DHT22;12457;50.832;4.346;2023-04-03T01:03:50;4.20;99.90
24338;DHT22;12457;50.832;4.346;2023-04-03T01:06:18;4.10;99.90
24338;DHT22;12457;50.832;4.346;2023-04-03T01:09:02;4.20;99.90
24338;DHT22;12457;50.832;4.346;2023-04-03T01:11:28;4.10;99.90
24338;DHT22;12457;50.832;4.346;2023-04-03T01:13:53;4.00;99.90
24338;DHT22;12457;50.832;4.346;2023-04-03T01:16:19;4.00;99.90
24338;DHT22;12457;50.832;4.346;2023-04-03T01:18:46;4.10;99.90
24338;DHT22;12457;50.832;4.346;2023-04-03T01:24:36;4.00;99.90
24338;DHT22;12457;50.832;4.346;2023-04-03T01:27:05;4.00;99.90
24338;DHT22;12457;50.832;4.346;2023-04-03T01:29:32;4.10;99.90
24338;DHT22;12457;50.832;4.346;2023-04-03T01:31:59;4.00;99.90
24338;DHT22;12457;50.832;4.346;2023-04-03T01:34:27;3.90;99.90
24338;DHT22;12457;50.832;4.346;2023-04-03T01:36:53;3.90;99.90
24338;DHT22;12457;50.832;4.346;2023-04-03T01:39:19;3.90;99.90
24338;DHT22;12457;50.832;4.346;2023-04-03T01:41:46;3.80;99.90
24338;DHT22;12457;50.832;4.346;2023-04-03T01:44:12;3.80;99.90
24338;DHT22;12457;50.832;4.346;2023-04-03T01:46:39;3.80;99.90
24338;DHT22;12457;50.832;4.346;2023-04-03T01:49:05;3.80;99.90
24338;DHT22;12457;50.832;4.346;2023-04-03T01:51:31;3.80;99.90
24338;DHT22;12457;50.832;4.346;2023-04-03T01:53:56;3.80;99.90
24338;DHT22;12457;50.832;4.346;2023-04-03T01:56:22;3.70;99.90
24338;DHT22;12457;50.832;4.346;2023-04-03T01:58:48;3.70;99.90
24338;DHT22;12457;50.832;4.346;2023-04-03T02:01:13;3.70;99.90
24338;DHT22;12457;50.832;4.346;2023-04-03T02:03:40;3.60;99.90
24338;DHT22;12457;50.832;4.346;2023-04-03T02:06:06;3.70;99.90
24338;DHT22;12457;50.832;4.346;2023-04-03T02:08:32;3.60;99.90
24338;DHT22;12457;50.832;4.346;2023-04-03T02:14:03;3.60;99.90
24338;DHT22;12457;50.832;4.346;2023-04-03T02:16:29;3.60;99.90
24338;DHT22;12457;50.832;4.346;2023-04-03T02:18:56;3.60;99.90
24338;DHT22;12457;50.832;4.346;2023-04-03T02:21:22;3.50;99.90
24338;DHT22;12457;50.832;4.346;2023-04-03T02:23:48;3.50;99.90
24338;DHT22;12457;50.832;4.346;2023-04-03T02:26:15;3.50;99.90
24338;DHT22;12457;50.832;4.346;2023-04-03T02:28:41;3.50;99.90
24338;DHT22;12457;50.832;4.346;2023-04-03T02:31:09;3.50;99.90
24338;DHT22;12457;50.832;4.346;2023-04-03T02:33:36;3.40;99.90
24338;DHT22;12457;50.832;4.346;2023-04-03T02:36:05;3.40;99.90
24338;DHT22;12457;50.832;4.346;2023-04-03T02:38:31;3.40;99.90
24338;DHT22;12457;50.832;4.346;2023-04-03T02:41:03;3.40;99.90
24338;DHT22;12457;50.832;4.346;2023-04-03T02:43:29;3.40;99.90
24338;DHT22;12457;50.832;4.346;2023-04-03T02:45:55;3.30;99.90
24338;DHT22;12457;50.832;4.346;2023-04-03T02:48:22;3.30;99.90
24338;DHT22;12457;50.832;4.346;2023-04-03T02:50:48;3.20;99.90
24338;DHT22;12457;50.832;4.346;2023-04-03T02:53:14;3.30;99.90
24338;DHT22;12457;50.832;4.346;2023-04-03T02:55:41;3.20;99.90
24338;DHT22;12457;50.832;4.346;2023-04-03T02:58:07;3.20;99.90
24338;DHT22;12457;50.832;4.346;2023-04-03T03:00:33;3.20;99.90
24338;DHT22;12457;50.832;4.346;2023-04-03T03:02:58;3.20;99.90
24338;DHT22;12457;50.832;4.346;2023-04-03T03:05:26;3.20;99.90
24338;DHT22;12457;50.832;4.346;2023-04-03T03:07:51;3.10;99.90
24338;DHT22;12457;50.832;4.346;2023-04-03T03:10:17;3.10;99.90
24338;DHT22;12457;50.832;4.346;2023-04-03T03:12:43;3.10;99.90
24338;DHT22;12457;50.832;4.346;2023-04-03T03:15:09;3.10;99.90
24338;DHT22;12457;50.832;4.346;2023-04-03T03:17:35;3.10;99.90
24338;DHT22;12457;50.832;4.346;2023-04-03T03:20:02;3.00;99.90
24338;DHT22;12457;50.832;4.346;2023-04-03T03:22:28;3.00;99.90
24338;DHT22;12457;50.832;4.346;2023-04-03T03:24:54;3.00;99.90
24338;DHT22;12457;50.832;4.346;2023-04-03T03:27:20;3.00;99.90
24338;DHT22;12457;50.832;4.346;2023-04-03T03:29:46;3.10;99.90
24338;DHT22;12457;50.832;4.346;2023-04-03T03:32:12;3.00;99.90
24338;DHT22;12457;50.832;4.346;2023-04-03T03:34:38;3.00;99.90
24338;DHT22;12457;50.832;4.346;2023-04-03T03:37:05;3.10;99.90
24338;DHT22;12457;50.832;4.346;2023-04-03T03:39:31;3.10;99.90
24338;DHT22;12457;50.832;4.346;2023-04-03T03:45:18;3.00;99.90
24338;DHT22;12457;50.832;4.346;2023-04-03T03:47:44;3.00;99.90
24338;DHT22;12457;50.832;4.346;2023-04-03T03:50:11;3.10;99.90
24338;DHT22;12457;50.832;4.346;2023-04-03T03:52:38;3.10;99.90
24338;DHT22;12457;50.832;4.346;2023-04-03T03:55:05;3.10;99.90
24338;DHT22;12457;50.832;4.346;2023-04-03T03:57:31;3.00;99.90
24338;DHT22;12457;50.832;4.346;2023-04-03T03:59:58;2.90;99.90
24338;DHT22;12457;50.832;4.346;2023-04-03T04:02:23;2.90;99.90
24338;DHT22;12457;50.832;4.346;2023-04-03T04:04:49;2.90;99.90
24338;DHT22;12457;50.832;4.346;2023-04-03T04:07:17;2.90;99.90
24338;DHT22;12457;50.832;4.346;2023-04-03T04:09:43;2.90;99.90
24338;DHT22;12457;50.832;4.346;2023-04-03T04:12:21;3.00;99.90
24338;DHT22;12457;50.832;4.346;2023-04-03T04:14:47;2.80;99.90
24338;DHT22;12457;50.832;4.346;2023-04-03T04:17:13;2.80;99.90
24338;DHT22;12457;50.832;4.346;2023-04-03T04:19:39;2.80;99.90
24338;DHT22;12457;50.832;4.346;2023-04-03T04:22:05;2.70;99.90
24338;DHT22;12457;50.832;4.346;2023-04-03T04:24:31;2.70;99.90
24338;DHT22;12457;50.832;4.346;2023-04-03T04:26:57;2.70;99.90
24338;DHT22;12457;50.832;4.346;2023-04-03T04:29:23;2.70;99.90
24338;DHT22;12457;50.832;4.346;2023-04-03T04:31:51;2.70;99.90
24338;DHT22;12457;50.832;4.346;2023-04-03T04:34:17;2.70;99.90
24338;DHT22;12457;50.832;4.346;2023-04-03T04:36:42;2.70;99.90
24338;DHT22;12457;50.832;4.346;2023-04-03T04:39:08;2.70;99.90
24338;DHT22;12457;50.832;4.346;2023-04-03T04:41:34;2.60;99.90
24338;DHT22;12457;50.832;4.346;2023-04-03T04:44:00;2.70;99.90
24338;DHT22;12457;50.832;4.346;2023-04-03T04:46:26;2.70;99.90
24338;DHT22;12457;50.832;4.346;2023-04-03T04:48:52;2.60;99.90
24338;DHT22;12457;50.832;4.346;2023-04-03T04:51:18;2.60;99.90
24338;DHT22;12457;50.832;4.346;2023-04-03T04:53:43;2.70;99.90
24338;DHT22;12457;50.832;4.346;2023-04-03T04:56:09;2.70;99.90
24338;DHT22;12457;50.832;4.346;2023-04-03T04:58:35;2.70;99.90
24338;DHT22;12457;50.832;4.346;2023-04-03T05:01:06;2.70;99.90
24338;DHT22;12457;50.832;4.346;2023-04-03T05:03:32;2.70;99.90
24338;DHT22;12457;50.832;4.346;2023-04-03T05:05:59;2.60;99.90
24338;DHT22;12457;50.832;4.346;2023-04-03T05:08:25;2.60;99.90
24338;DHT22;12457;50.832;4.346;2023-04-03T05:10:53;2.60;99.90
24338;DHT22;12457;50.832;4.346;2023-04-03T05:13:20;2.70;99.90
24338;DHT22;12457;50.832;4.346;2023-04-03T05:15:46;2.60;99.90
24338;DHT22;12457;50.832;4.346;2023-04-03T05:18:14;2.70;99.90
24338;DHT22;12457;50.832;4.346;2023-04-03T05:20:40;2.60;99.90
24338;DHT22;12457;50.832;4.346;2023-04-03T05:23:05;2.60;99.90
24338;DHT22;12457;50.832;4.346;2023-04-03T05:25:34;2.60;99.90
24338;DHT22;12457;50.832;4.346;2023-04-03T05:28:01;2.70;99.90
24338;DHT22;12457;50.832;4.346;2023-04-03T05:30:27;2.70;99.90
24338;DHT22;12457;50.832;4.346;2023-04-03T05:32:52;2.70;99.90
24338;DHT22;12457;50.832;4.346;2023-04-03T05:35:18;2.70;99.90
24338;DHT22;12457;50.832;4.346;2023-04-03T05:37:44;2.90;99.90
24338;DHT22;12457;50.832;4.346;2023-04-03T05:40:11;2.90;99.90
24338;DHT22;12457;50.832;4.346;2023-04-03T05:42:38;2.90;99.90
24338;DHT22;12457;50.832;4.346;2023-04-03T05:45:04;3.00;99.90
24338;DHT22;12457;50.832;4.346;2023-04-03T05:47:30;3.10;99.90
24338;DHT22;12457;50.832;4.346;2023-04-03T05:49:56;3.20;99.90
24338;DHT22;12457;50.832;4.346;2023-04-03T05:54:50;3.50;99.90
24338;DHT22;12457;50.832;4.346;2023-04-03T05:57:16;3.70;99.90
24338;DHT22;12457;50.832;4.346;2023-04-03T05:59:44;3.90;99.90
24338;DHT22;12457;50.832;4.346;2023-04-03T06:02:13;4.20;99.90
24338;DHT22;12457;50.832;4.346;2023-04-03T06:04:39;4.30;99.90
24338;DHT22;12457;50.832;4.346;2023-04-03T06:07:06;4.50;99.90
24338;DHT22;12457;50.832;4.346;2023-04-03T06:09:34;4.60;99.90
24338;DHT22;12457;50.832;4.346;2023-04-03T06:12:01;4.70;99.90
24338;DHT22;12457;50.832;4.346;2023-04-03T06:14:27;4.70;99.90
24338;DHT22;12457;50.832;4.346;2023-04-03T06:16:53;4.60;99.90
24338;DHT22;12457;50.832;4.346;2023-04-03T06:19:20;4.40;99.90
24338;DHT22;12457;50.832;4.346;2023-04-03T06:21:46;4.30;99.90
24338;DHT22;12457;50.832;4.346;2023-04-03T06:24:15;4.10;99.90
24338;DHT22;12457;50.832;4.346;2023-04-03T06:26:42;4.00;99.90
24338;DHT22;12457;50.832;4.346;2023-04-03T06:29:08;3.90;99.90
24338;DHT22;12457;50.832;4.346;2023-04-03T06:31:34;3.80;99.90
24338;DHT22;12457;50.832;4.346;2023-04-03T06:34:03;3.80;99.90
24338;DHT22;12457;50.832;4.346;2023-04-03T06:36:29;3.90;99.90
24338;DHT22;12457;50.832;4.346;2023-04-03T06:38:55;3.90;99.90
24338;DHT22;12457;50.832;4.346;2023-04-03T06:41:21;3.90;99.90
24338;DHT22;12457;50.832;4.346;2023-04-03T06:43:47;4.00;99.90
24338;DHT22;12457;50.832;4.346;2023-04-03T06:46:17;4.10;99.90
24338;DHT22;12457;50.832;4.346;2023-04-03T06:48:43;4.10;99.90
24338;DHT22;12457;50.832;4.346;2023-04-03T06:53:47;4.00;99.90
24338;DHT22;12457;50.832;4.346;2023-04-03T06:56:13;4.00;99.90
24338;DHT22;12457;50.832;4.346;2023-04-03T06:58:42;3.90;99.90
24338;DHT22;12457;50.832;4.346;2023-04-03T07:01:09;3.90;99.90
24338;DHT22;12457;50.832;4.346;2023-04-03T07:03:39;3.90;99.90
24338;DHT22;12457;50.832;4.346;2023-04-03T07:06:06;3.90;99.90
24338;DHT22;12457;50.832;4.346;2023-04-03T07:08:33;3.90;99.90
24338;DHT22;12457;50.832;4.346;2023-04-03T07:10:58;3.90;99.90
24338;DHT22;12457;50.832;4.346;2023-04-03T07:13:25;3.90;99.90
24338;DHT22;12457;50.832;4.346;2023-04-03T07:15:50;3.90;99.90
24338;DHT22;12457;50.832;4.346;2023-04-03T07:18:16;4.00;99.90
24338;DHT22;12457;50.832;4.346;2023-04-03T07:20:43;4.00;99.90
24338;DHT22;12457;50.832;4.346;2023-04-03T07:23:09;4.00;99.90
24338;DHT22;12457;50.832;4.346;2023-04-03T07:25:36;4.10;99.90
24338;DHT22;12457;50.832;4.346;2023-04-03T07:28:01;4.20;99.90
24338;DHT22;12457;50.832;4.346;2023-04-03T07:30:27;4.30;99.90
24338;DHT22;12457;50.832;4.346;2023-04-03T07:32:53;4.30;99.90
24338;DHT22;12457;50.832;4.346;2023-04-03T07:35:19;4.40;99.90
24338;DHT22;12457;50.832;4.346;2023-04-03T07:37:44;4.50;99.90
24338;DHT22;12457;50.832;4.346;2023-04-03T07:40:10;4.60;99.90
24338;DHT22;12457;50.832;4.346;2023-04-03T07:42:36;4.70;99.90
24338;DHT22;12457;50.832;4.346;2023-04-03T07:45:03;4.80;99.90
24338;DHT22;12457;50.832;4.346;2023-04-03T07:47:30;5.00;99.90
24338;DHT22;12457;50.832;4.346;2023-04-03T07:49:56;4.90;99.90
24338;DHT22;12457;50.832;4.346;2023-04-03T07:52:23;4.90;99.90
24338;DHT22;12457;50.832;4.346;2023-04-03T07:54:52;5.00;99.90
24338;DHT22;12457;50.832;4.346;2023-04-03T07:57:17;5.10;99.90
24338;DHT22;12457;50.832;4.346;2023-04-03T07:59:43;5.20;99.90
24338;DHT22;12457;50.832;4.346;2023-04-03T08:02:11;5.30;99.90
24338;DHT22;12457;50.832;4.346;2023-04-03T08:04:36;5.30;99.90
24338;DHT22;12457;50.832;4.346;2023-04-03T08:07:02;5.20;99.90
24338;DHT22;12457;50.832;4.346;2023-04-03T08:09:28;5.30;99.90
24338;DHT22;12457;50.832;4.346;2023-04-03T08:11:53;5.20;99.90
24338;DHT22;12457;50.832;4.346;2023-04-03T08:14:25;5.20;99.90
24338;DHT22;12457;50.832;4.346;2023-04-03T08:16:51;5.40;99.90
24338;DHT22;12457;50.832;4.346;2023-04-03T08:19:17;5.60;99.90
24338;DHT22;12457;50.832;4.346;2023-04-03T08:21:44;5.60;99.90
24338;DHT22;12457;50.832;4.346;2023-04-03T08:24:11;5.60;99.90
24338;DHT22;12457;50.832;4.346;2023-04-03T08:26:37;5.70;99.90
24338;DHT22;12457;50.832;4.346;2023-04-03T08:29:03;5.80;99.90
24338;DHT22;12457;50.832;4.346;2023-04-03T08:31:29;5.80;99.90
24338;DHT22;12457;50.832;4.346;2023-04-03T08:33:56;5.90;99.90
24338;DHT22;12457;50.832;4.346;2023-04-03T08:36:28;6.10;99.90
24338;DHT22;12457;50.832;4.346;2023-04-03T08:38:56;6.20;99.90
24338;DHT22;12457;50.832;4.346;2023-04-03T08:47:28;6.00;99.90
24338;DHT22;12457;50.832;4.346;2023-04-03T08:49:58;6.20;99.90
24338;DHT22;12457;50.832;4.346;2023-04-03T08:52:40;6.20;99.90
24338;DHT22;12457;50.832;4.346;2023-04-03T08:55:26;6.30;99.90
24338;DHT22;12457;50.832;4.346;2023-04-03T08:58:04;6.20;99.90
24338;DHT22;12457;50.832;4.346;2023-04-03T09:00:50;6.20;99.90
24338;DHT22;12457;50.832;4.346;2023-04-03T09:03:19;6.20;99.90
24338;DHT22;12457;50.832;4.346;2023-04-03T09:08:43;6.50;99.90
24338;DHT22;12457;50.832;4.346;2023-04-03T09:11:20;6.70;99.90
24338;DHT22;12457;50.832;4.346;2023-04-03T09:16:27;6.70;99.90
24338;DHT22;12457;50.832;4.346;2023-04-03T09:19:02;6.70;99.90
24338;DHT22;12457;50.832;4.346;2023-04-03T09:21:38;6.90;99.90
24338;DHT22;12457;50.832;4.346;2023-04-03T09:24:07;7.00;99.90
24338;DHT22;12457;50.832;4.346;2023-04-03T09:26:56;7.10;99.90
24338;DHT22;12457;50.832;4.346;2023-04-03T09:29:25;7.20;99.90
24338;DHT22;12457;50.832;4.346;2023-04-03T09:32:00;7.00;99.90
24338;DHT22;12457;50.832;4.346;2023-04-03T09:34:31;7.00;99.90
24338;DHT22;12457;50.832;4.346;2023-04-03T09:37:01;7.10;99.90
24338;DHT22;12457;50.832;4.346;2023-04-03T09:39:32;7.30;99.90
24338;DHT22;12457;50.832;4.346;2023-04-03T09:42:21;7.30;99.90
24338;DHT22;12457;50.832;4.346;2023-04-03T09:45:00;7.30;99.90
24338;DHT22;12457;50.832;4.346;2023-04-03T09:47:33;7.40;99.90
24338;DHT22;12457;50.832;4.346;2023-04-03T09:52:49;7.40;99.90
24338;DHT22;12457;50.832;4.346;2023-04-03T09:55:25;7.60;99.90
24338;DHT22;12457;50.832;4.346;2023-04-03T09:57:58;7.70;99.90
24338;DHT22;12457;50.832;4.346;2023-04-03T10:00:37;7.80;99.90
24338;DHT22;12457;50.832;4.346;2023-04-03T10:03:04;7.90;99.90
24338;DHT22;12457;50.832;4.346;2023-04-03T10:05:38;8.00;99.90
24338;DHT22;12457;50.832;4.346;2023-04-03T10:10:45;8.20;99.90
24338;DHT22;12457;50.832;4.346;2023-04-03T10:13:18;8.00;99.90
24338;DHT22;12457;50.832;4.346;2023-04-03T10:16:12;7.80;99.90
24338;DHT22;12457;50.832;4.346;2023-04-03T10:21:41;7.90;99.90
24338;DHT22;12457;50.832;4.346;2023-04-03T10:34:44;8.40;99.90
24338;DHT22;12457;50.832;4.346;2023-04-03T10:37:32;8.40;99.90
24338;DHT22;12457;50.832;4.346;2023-04-03T10:40:24;8.30;99.90
24338;DHT22;12457;50.832;4.346;2023-04-03T10:51:36;9.00;99.90
24338;DHT22;12457;50.832;4.346;2023-04-03T10:54:25;8.90;99.90
24338;DHT22;12457;50.832;4.346;2023-04-03T10:57:06;9.00;99.90
24338;DHT22;12457;50.832;4.346;2023-04-03T10:59:38;8.90;99.80
24338;DHT22;12457;50.832;4.346;2023-04-03T11:02:23;8.90;99.80
24338;DHT22;12457;50.832;4.346;2023-04-03T11:04:59;9.00;99.80
24338;DHT22;12457;50.832;4.346;2023-04-03T11:07:29;8.90;97.10
24338;DHT22;12457;50.832;4.346;2023-04-03T11:10:03;8.80;95.20
24338;DHT22;12457;50.832;4.346;2023-04-03T11:12:56;8.90;94.30
24338;DHT22;12457;50.832;4.346;2023-04-03T11:15:24;8.80;93.40
24338;DHT22;12457;50.832;4.346;2023-04-03T11:18:09;8.90;91.50
24338;DHT22;12457;50.832;4.346;2023-04-03T11:20:37;9.00;91.70
24338;DHT22;12457;50.832;4.346;2023-04-03T11:23:19;9.00;91.00
24338;DHT22;12457;50.832;4.346;2023-04-03T11:25:50;9.00;92.70
24338;DHT22;12457;50.832;4.346;2023-04-03T11:28:17;9.20;91.60
24338;DHT22;12457;50.832;4.346;2023-04-03T11:36:54;9.40;91.70
24338;DHT22;12457;50.832;4.346;2023-04-03T11:39:25;9.60;92.30
24338;DHT22;12457;50.832;4.346;2023-04-03T11:41:53;9.60;92.30
24338;DHT22;12457;50.832;4.346;2023-04-03T11:44:33;9.40;93.40
24338;DHT22;12457;50.832;4.346;2023-04-03T11:47:00;9.30;95.00
24338;DHT22;12457;50.832;4.346;2023-04-03T11:49:56;9.30;95.90
24338;DHT22;12457;50.832;4.346;2023-04-03T12:19:34;9.80;87.30
24338;DHT22;12457;50.832;4.346;2023-04-03T12:24:31;9.80;84.90
24338;DHT22;12457;50.832;4.346;2023-04-03T12:29:33;9.90;82.00
24338;DHT22;12457;50.832;4.346;2023-04-03T12:41:03;9.90;77.40
24338;DHT22;12457;50.832;4.346;2023-04-03T12:46:42;9.70;69.60
24338;DHT22;12457;50.832;4.346;2023-04-03T12:49:30;9.60;71.40
24338;DHT22;12457;50.832;4.346;2023-04-03T12:52:00;9.50;69.60
24338;DHT22;12457;50.832;4.346;2023-04-03T12:54:37;9.60;69.90
24338;DHT22;12457;50.832;4.346;2023-04-03T12:57:24;9.60;69.80
24338;DHT22;12457;50.832;4.346;2023-04-03T12:59:51;9.80;69.10
24338;DHT22;12457;50.832;4.346;2023-04-03T13:02:21;9.80;68.00
24338;DHT22;12457;50.832;4.346;2023-04-03T13:04:51;9.60;67.30
24338;DHT22;12457;50.832;4.346;2023-04-03T13:07:25;9.50;68.10
24338;DHT22;12457;50.832;4.346;2023-04-03T13:10:23;9.70;68.40
24338;DHT22;12457;50.832;4.346;2023-04-03T13:12:56;10.00;67.40
24338;DHT22;12457;50.832;4.346;2023-04-03T13:17:50;10.20;64.90
24338;DHT22;12457;50.832;4.346;2023-04-03T13:20:25;10.10;64.10
24338;DHT22;12457;50.832;4.346;2023-04-03T13:23:08;10.00;64.10
24338;DHT22;12457;50.832;4.346;2023-04-03T13:25:40;10.00;63.80
24338;DHT22;12457;50.832;4.346;2023-04-03T13:28:07;9.80;63.10
24338;DHT22;12457;50.832;4.346;2023-04-03T13:30:35;10.00;61.90
24338;DHT22;12457;50.832;4.346;2023-04-03T13:33:29;10.00;59.50
24338;DHT22;12457;50.832;4.346;2023-04-03T13:36:23;10.00;60.00
24338;DHT22;12457;50.832;4.346;2023-04-03T13:39:17;10.10;59.90
24338;DHT22;12457;50.832;4.346;2023-04-03T13:41:55;10.20;59.00
24338;DHT22;12457;50.832;4.346;2023-04-03T13:44:33;10.10;59.50
24338;DHT22;12457;50.832;4.346;2023-04-03T13:47:20;10.20;58.40
24338;DHT22;12457;50.832;4.346;2023-04-03T13:52:47;10.20;58.90
24338;DHT22;12457;50.832;4.346;2023-04-03T13:55:26;10.40;58.30
24338;DHT22;12457;50.832;4.346;2023-04-03T13:58:26;10.40;57.80
24338;DHT22;12457;50.832;4.346;2023-04-03T14:03:31;10.50;59.50
24338;DHT22;12457;50.832;4.346;2023-04-03T14:05:57;10.50;58.70
24338;DHT22;12457;50.832;4.346;2023-04-03T14:08:23;10.50;57.70
24338;DHT22;12457;50.832;4.346;2023-04-03T14:10:50;10.30;57.50
24338;DHT22;12457;50.832;4.346;2023-04-03T14:13:19;10.20;57.80
24338;DHT22;12457;50.832;4.346;2023-04-03T14:15:47;10.10;58.90
24338;DHT22;12457;50.832;4.346;2023-04-03T14:18:15;10.10;59.80
24338;DHT22;12457;50.832;4.346;2023-04-03T14:20:42;10.30;61.10
24338;DHT22;12457;50.832;4.346;2023-04-03T14:23:08;10.40;60.10
24338;DHT22;12457;50.832;4.346;2023-04-03T14:25:34;10.50;58.60
24338;DHT22;12457;50.832;4.346;2023-04-03T14:28:06;10.50;58.40
24338;DHT22;12457;50.832;4.346;2023-04-03T14:30:38;10.40;59.30
24338;DHT22;12457;50.832;4.346;2023-04-03T14:33:05;10.60;59.10
24338;DHT22;12457;50.832;4.346;2023-04-03T14:35:32;10.60;57.80
24338;DHT22;12457;50.832;4.346;2023-04-03T14:37:58;10.40;57.60
24338;DHT22;12457;50.832;4.346;2023-04-03T14:40:26;10.40;58.40
24338;DHT22;12457;50.832;4.346;2023-04-03T14:42:54;10.50;59.50
24338;DHT22;12457;50.832;4.346;2023-04-03T14:45:21;10.50;56.30
24338;DHT22;12457;50.832;4.346;2023-04-03T14:47:51;10.50;56.70
24338;DHT22;12457;50.832;4.346;2023-04-03T14:50:20;10.40;57.40
24338;DHT22;12457;50.832;4.346;2023-04-03T14:52:48;10.50;57.80
24338;DHT22;12457;50.832;4.346;2023-04-03T14:55:19;10.60;57.70
24338;DHT22;12457;50.832;4.346;2023-04-03T14:57:46;10.50;56.90
24338;DHT22;12457;50.832;4.346;2023-04-03T15:00:15;10.40;57.50
24338;DHT22;12457;50.832;4.346;2023-04-03T15:02:40;10.40;57.70
24338;DHT22;12457;50.832;4.346;2023-04-03T15:05:09;10.50;57.90
24338;DHT22;12457;50.832;4.346;2023-04-03T15:07:41;10.60;58.70
24338;DHT22;12457;50.832;4.346;2023-04-03T15:10:16;10.50;58.20
24338;DHT22;12457;50.832;4.346;2023-04-03T15:12:43;10.50;57.90
24338;DHT22;12457;50.832;4.346;2023-04-03T15:15:10;10.50;57.40
24338;DHT22;12457;50.832;4.346;2023-04-03T15:17:37;10.40;56.60
24338;DHT22;12457;50.832;4.346;2023-04-03T15:20:16;10.40;56.50
24338;DHT22;12457;50.832;4.346;2023-04-03T15:22:43;10.40;56.90
24338;DHT22;12457;50.832;4.346;2023-04-03T15:25:09;10.40;57.30
24338;DHT22;12457;50.832;4.346;2023-04-03T15:27:36;10.30;56.20
24338;DHT22;12457;50.832;4.346;2023-04-03T15:30:04;10.40;56.70
24338;DHT22;12457;50.832;4.346;2023-04-03T15:32:30;10.30;55.90
24338;DHT22;12457;50.832;4.346;2023-04-03T15:34:56;10.40;56.70
24338;DHT22;12457;50.832;4.346;2023-04-03T15:37:22;10.40;56.10
24338;DHT22;12457;50.832;4.346;2023-04-03T15:39:48;10.40;55.50
24338;DHT22;12457;50.832;4.346;2023-04-03T15:42:14;10.40;55.30
24338;DHT22;12457;50.832;4.346;2023-04-03T15:44:39;10.40;55.80
24338;DHT22;12457;50.832;4.346;2023-04-03T15:47:06;10.30;55.30
24338;DHT22;12457;50.832;4.346;2023-04-03T15:49:33;10.30;55.90
24338;DHT22;12457;50.832;4.346;2023-04-03T15:51:59;10.40;56.20
24338;DHT22;12457;50.832;4.346;2023-04-03T15:54:25;10.30;55.70
24338;DHT22;12457;50.832;4.346;2023-04-03T15:56:51;10.40;55.30
24338;DHT22;12457;50.832;4.346;2023-04-03T15:59:17;10.40;55.50
24338;DHT22;12457;50.832;4.346;2023-04-03T16:01:43;10.40;55.20
24338;DHT22;12457;50.832;4.346;2023-04-03T16:04:11;10.30;55.90
24338;DHT22;12457;50.832;4.346;2023-04-03T16:06:38;10.30;56.40
24338;DHT22;12457;50.832;4.346;2023-04-03T16:09:04;10.40;57.70
24338;DHT22;12457;50.832;4.346;2023-04-03T16:11:32;10.40;58.50
24338;DHT22;12457;50.832;4.346;2023-04-03T16:13:58;10.30;59.20
24338;DHT22;12457;50.832;4.346;2023-04-03T16:16:24;10.40;58.90
24338;DHT22;12457;50.832;4.346;2023-04-03T16:19:02;10.40;58.70
24338;DHT22;12457;50.832;4.346;2023-04-03T16:21:28;10.40;59.50
24338;DHT22;12457;50.832;4.346;2023-04-03T16:23:59;10.30;59.80
24338;DHT22;12457;50.832;4.346;2023-04-03T16:26:27;10.20;60.10
24338;DHT22;12457;50.832;4.346;2023-04-03T16:28:53;10.10;61.30
24338;DHT22;12457;50.832;4.346;2023-04-03T16:31:20;10.20;62.10
24338;DHT22;12457;50.832;4.346;2023-04-03T16:37:06;10.10;62.10
24338;DHT22;12457;50.832;4.346;2023-04-03T16:39:34;10.10;64.30
24338;DHT22;12457;50.832;4.346;2023-04-03T16:42:01;10.10;62.40
24338;DHT22;12457;50.832;4.346;2023-04-03T16:44:26;10.00;62.20
24338;DHT22;12457;50.832;4.346;2023-04-03T16:46:52;10.00;62.30
24338;DHT22;12457;50.832;4.346;2023-04-03T16:49:18;10.10;63.10
24338;DHT22;12457;50.832;4.346;2023-04-03T16:51:43;10.10;63.80
24338;DHT22;12457;50.832;4.346;2023-04-03T16:54:10;10.00;64.60
24338;DHT22;12457;50.832;4.346;2023-04-03T16:56:38;10.00;66.00
24338;DHT22;12457;50.832;4.346;2023-04-03T16:59:04;10.00;65.30
24338;DHT22;12457;50.832;4.346;2023-04-03T17:01:30;9.90;65.30
24338;DHT22;12457;50.832;4.346;2023-04-03T17:03:59;9.70;66.20
24338;DHT22;12457;50.832;4.346;2023-04-03T17:06:25;9.70;66.70
24338;DHT22;12457;50.832;4.346;2023-04-03T17:08:52;9.70;67.50
24338;DHT22;12457;50.832;4.346;2023-04-03T17:11:18;9.70;68.20
24338;DHT22;12457;50.832;4.346;2023-04-03T17:13:44;9.70;67.40
24338;DHT22;12457;50.832;4.346;2023-04-03T17:16:13;9.70;67.00
24338;DHT22;12457;50.832;4.346;2023-04-03T17:18:39;9.60;67.10
24338;DHT22;12457;50.832;4.346;2023-04-03T17:21:05;9.60;67.40
24338;DHT22;12457;50.832;4.346;2023-04-03T17:23:32;9.60;68.70
24338;DHT22;12457;50.832;4.346;2023-04-03T17:26:00;9.50;68.90
24338;DHT22;12457;50.832;4.346;2023-04-03T17:28:26;9.60;69.10
24338;DHT22;12457;50.832;4.346;2023-04-03T17:30:59;9.50;68.80
24338;DHT22;12457;50.832;4.346;2023-04-03T17:37:01;9.30;68.80
24338;DHT22;12457;50.832;4.346;2023-04-03T17:39:26;9.30;69.90
24338;DHT22;12457;50.832;4.346;2023-04-03T17:41:52;9.20;70.10
24338;DHT22;12457;50.832;4.346;2023-04-03T17:44:20;9.20;70.20
24338;DHT22;12457;50.832;4.346;2023-04-03T17:46:46;9.20;71.50
24338;DHT22;12457;50.832;4.346;2023-04-03T17:49:12;9.20;71.80
24338;DHT22;12457;50.832;4.346;2023-04-03T17:51:40;9.10;72.30
24338;DHT22;12457;50.832;4.346;2023-04-03T17:54:06;9.10;72.10